Time;durP1;ratioP1;P1;durP2;ratioP2;P2;SDS_P1;SDS_P2;PMS_P1;PMS_P2;Temp;Humidity;BMP_temperature;BMP_pressure;BME280_temperature;BME280_humidity;BME280_pressure;Samples;Min_cycle;Max_cycle;Signal;HPM_P1;HPM_P2
2023/03/28 00:01:56;;;;;;;0.65;0.40;;;18.30;62.10;;;;;;5054025;28;20104;-24
2023/03/28 00:04:21;;;;;;;1.10;0.40;;;18.30;62.10;;;;;;5054153;28;20033;-24
2023/03/28 00:06:48;;;;;;;0.50;0.50;;;18.30;62.10;;;;;;5054297;28;20025;-26
2023/03/28 00:09:15;;;;;;;0.57;0.57;;;18.30;62.10;;;;;;5054190;28;20082;-24
2023/03/28 00:11:42;;;;;;;0.98;0.50;;;18.20;62.20;;;;;;5053962;28;20508;-25
2023/03/28 00:14:07;;;;;;;1.15;0.40;;;18.20;62.20;;;;;;5054235;28;20021;-24
2023/03/28 00:16:38;;;;;;;1.35;0.47;;;18.20;62.20;;;;;;5054131;28;20376;-25
2023/03/28 00:19:16;;;;;;;1.40;0.60;;;18.20;62.20;;;;;;5054188;28;20071;-25
2023/03/28 00:21:47;;;;;;;0.57;0.40;;;18.20;62.20;;;;;;5052561;28;20041;-26
2023/03/28 00:24:15;;;;;;;0.82;0.57;;;18.20;62.30;;;;;;5054275;28;20027;-24
2023/03/28 00:26:42;;;;;;;0.50;0.50;;;18.20;62.30;;;;;;5052406;28;20029;-24
2023/03/28 00:29:14;;;;;;;2.00;0.60;;;18.20;62.30;;;;;;5054123;28;20017;-23
2023/03/28 00:31:41;;;;;;;1.13;0.40;;;18.10;62.30;;;;;;5054158;28;20053;-24
2023/03/28 00:34:07;;;;;;;0.50;0.40;;;18.20;62.40;;;;;;5053353;28;20111;-23
2023/03/28 00:36:33;;;;;;;0.35;0.35;;;18.10;62.40;;;;;;5053531;28;20036;-23
2023/03/28 00:39:04;;;;;;;0.30;0.30;;;18.10;62.40;;;;;;5052275;28;20029;-23
2023/03/28 00:41:38;;;;;;;0.65;0.50;;;18.10;62.40;;;;;;5053459;28;20033;-24
2023/03/28 00:44:44;;;;;;;1.00;0.52;;;18.10;62.50;;;;;;5053213;28;20017;-24
2023/03/28 00:47:15;;;;;;;0.60;0.40;;;18.10;62.40;;;;;;5041132;28;20554;-25
2023/03/28 00:49:45;;;;;;;0.40;0.40;;;18.10;62.50;;;;;;5052910;28;20029;-24
2023/03/28 00:52:15;;;;;;;0.40;0.40;;;18.00;62.50;;;;;;5053347;28;20445;-24
2023/03/28 00:54:41;;;;;;;0.50;0.50;;;18.00;62.50;;;;;;5053434;28;20358;-24
2023/03/28 00:57:08;;;;;;;0.45;0.43;;;18.00;62.50;;;;;;5053508;28;20020;-24
2023/03/28 00:59:36;;;;;;;0.30;0.30;;;18.00;62.60;;;;;;5053103;28;20025;-24
2023/03/28 01:02:02;;;;;;;0.65;0.40;;;18.00;62.60;;;;;;5053319;28;20840;-24
2023/03/28 01:04:58;;;;;;;0.40;0.40;;;18.00;62.60;;;;;;5053365;28;20032;-24
2023/03/28 01:07:27;;;;;;;0.40;0.40;;;18.00;62.60;;;;;;5052806;28;20061;-25
2023/03/28 01:09:54;;;;;;;1.05;0.50;;;18.00;62.60;;;;;;5051608;28;20155;-25
2023/03/28 01:12:21;;;;;;;0.75;0.50;;;18.00;62.70;;;;;;5053318;28;20036;-25
2023/03/28 01:14:47;;;;;;;0.40;0.40;;;18.00;62.70;;;;;;5053141;28;20103;-25
2023/03/28 01:17:14;;;;;;;0.65;0.40;;;18.00;62.70;;;;;;5052922;28;20508;-25
2023/03/28 01:20:06;;;;;;;2.20;0.82;;;18.00;62.70;;;;;;5053236;28;20082;-24
2023/03/28 01:22:55;;;;;;;0.82;0.45;;;17.90;62.70;;;;;;5052725;28;20424;-24
2023/03/28 01:25:55;;;;;;;0.40;0.40;;;18.00;62.80;;;;;;5053453;28;20029;-25
2023/03/28 01:28:24;;;;;;;0.50;0.50;;;17.90;62.70;;;;;;5053150;28;20037;-25
2023/03/28 01:31:09;;;;;;;1.85;0.60;;;17.90;62.70;;;;;;5052661;28;20390;-25
2023/03/28 01:33:34;;;;;;;0.40;0.40;;;17.90;62.70;;;;;;5053127;28;20025;-23
2023/03/28 01:36:39;;;;;;;1.40;0.50;;;17.90;62.70;;;;;;5052874;28;20032;-24
2023/03/28 01:39:40;;;;;;;1.10;0.60;;;17.90;62.80;;;;;;5053037;28;20037;-23
2023/03/28 01:42:21;;;;;;;0.40;0.40;;;17.90;62.80;;;;;;5052635;28;20523;-24
2023/03/28 01:44:57;;;;;;;1.10;0.30;;;17.90;62.80;;;;;;5052847;28;20423;-24
2023/03/28 01:47:46;;;;;;;0.85;0.50;;;17.90;62.80;;;;;;5052619;28;20033;-24
2023/03/28 01:51:05;;;;;;;0.50;0.50;;;17.90;62.90;;;;;;5052962;28;20037;-24
2023/03/28 01:53:42;;;;;;;0.40;0.40;;;17.90;62.90;;;;;;4981506;28;20524;-24
2023/03/28 01:56:23;;;;;;;1.15;0.40;;;17.90;63.00;;;;;;5011044;28;20030;-23
2023/03/28 01:59:16;;;;;;;0.50;0.43;;;17.90;62.90;;;;;;5011011;28;20034;-23
2023/03/28 02:01:54;;;;;;;1.65;0.45;;;17.80;63.00;;;;;;5006140;28;20037;-27
2023/03/28 02:04:24;;;;;;;0.40;0.40;;;17.80;63.00;;;;;;5014756;28;20056;-25
2023/03/28 02:06:51;;;;;;;0.50;0.50;;;17.80;63.00;;;;;;5014571;28;20026;-25
2023/03/28 02:09:21;;;;;;;0.50;0.50;;;17.80;63.00;;;;;;5014598;28;20038;-25
2023/03/28 02:11:52;;;;;;;0.95;0.55;;;17.80;63.10;;;;;;5014366;28;20216;-25
2023/03/28 02:14:22;;;;;;;0.50;0.40;;;17.70;63.10;;;;;;5014688;28;20071;-25
2023/03/28 02:16:53;;;;;;;0.50;0.50;;;17.80;63.10;;;;;;5014544;28;20042;-25
2023/03/28 02:19:23;;;;;;;0.50;0.40;;;17.80;63.10;;;;;;5014330;28;20029;-25
2023/03/28 02:22:07;;;;;;;0.30;0.30;;;17.70;63.10;;;;;;5014085;28;20524;-25
2023/03/28 02:24:33;;;;;;;0.30;0.30;;;17.70;63.00;;;;;;5014456;28;20045;-23
2023/03/28 02:26:59;;;;;;;0.52;0.50;;;17.70;63.10;;;;;;5014184;28;20394;-25
2023/03/28 02:29:27;;;;;;;0.40;0.35;;;17.70;63.10;;;;;;5028054;28;20170;-25
2023/03/28 02:31:53;;;;;;;0.52;0.40;;;17.70;63.20;;;;;;5055768;28;20025;-25
2023/03/28 02:34:19;;;;;;;0.70;0.50;;;17.70;63.20;;;;;;5056086;28;20079;-24
2023/03/28 02:36:51;;;;;;;0.40;0.40;;;17.70;63.20;;;;;;5056091;28;20028;-24
2023/03/28 02:39:38;;;;;;;0.90;0.60;;;17.70;63.30;;;;;;5055834;28;20078;-24
2023/03/28 02:42:41;;;;;;;0.70;0.55;;;17.60;63.30;;;;;;5054252;28;20033;-24
2023/03/28 02:45:28;;;;;;;0.75;0.45;;;17.60;63.30;;;;;;5055990;28;20025;-23
2023/03/28 02:48:18;;;;;;;0.40;0.40;;;17.70;63.30;;;;;;5055668;28;20199;-24
2023/03/28 02:50:59;;;;;;;0.45;0.45;;;17.70;63.30;;;;;;5055547;28;20489;-24
2023/03/28 02:53:34;;;;;;;0.38;0.38;;;17.70;63.30;;;;;;5054273;28;20492;-24
2023/03/28 02:56:11;;;;;;;0.40;0.40;;;17.70;63.40;;;;;;5055381;28;20106;-25
2023/03/28 02:58:48;;;;;;;0.45;0.45;;;17.60;63.40;;;;;;5055370;28;20021;-25
2023/03/28 03:01:14;;;;;;;0.52;0.52;;;17.60;63.40;;;;;;5055614;28;20112;-25
2023/03/28 03:03:42;;;;;;;0.43;0.43;;;17.60;63.40;;;;;;5055372;28;20155;-25
2023/03/28 03:06:09;;;;;;;0.85;0.38;;;17.60;63.40;;;;;;5055149;28;20033;-25
2023/03/28 03:08:35;;;;;;;0.50;0.40;;;17.60;63.50;;;;;;5055116;28;20497;-25
2023/03/28 03:11:01;;;;;;;0.40;0.40;;;17.60;63.50;;;;;;5053894;28;20021;-25
2023/03/28 03:13:27;;;;;;;0.77;0.40;;;17.60;63.50;;;;;;5054762;28;20534;-26
2023/03/28 03:15:53;;;;;;;0.40;0.40;;;17.60;63.50;;;;;;5055259;28;20094;-24
2023/03/28 03:18:19;;;;;;;0.85;0.40;;;17.60;63.50;;;;;;5055020;28;20033;-25
2023/03/28 03:20:45;;;;;;;0.40;0.40;;;17.50;63.50;;;;;;5055195;28;20021;-24
2023/03/28 03:23:11;;;;;;;0.52;0.52;;;17.60;63.60;;;;;;5053616;28;20025;-24
2023/03/28 03:25:38;;;;;;;0.70;0.47;;;17.50;63.60;;;;;;5055171;28;20051;-25
2023/03/28 03:28:07;;;;;;;0.43;0.40;;;17.50;63.60;;;;;;5054707;28;20040;-24
2023/03/28 03:30:33;;;;;;;0.40;0.40;;;17.50;63.60;;;;;;5054685;28;20033;-24
2023/03/28 03:33:04;;;;;;;0.30;0.30;;;17.50;63.60;;;;;;5054860;28;20078;-25
2023/03/28 03:35:32;;;;;;;0.43;0.43;;;17.50;63.60;;;;;;5055103;28;20032;-24
2023/03/28 03:37:59;;;;;;;0.40;0.40;;;17.50;63.70;;;;;;5054746;28;20035;-24
2023/03/28 03:40:25;;;;;;;0.52;0.40;;;17.50;63.70;;;;;;5054618;28;20388;-24
2023/03/28 03:42:51;;;;;;;0.38;0.38;;;17.50;63.70;;;;;;5054919;28;20032;-24
2023/03/28 03:45:17;;;;;;;0.50;0.50;;;17.50;63.70;;;;;;5054476;28;20029;-23
2023/03/28 03:47:43;;;;;;;0.32;0.32;;;17.40;63.70;;;;;;5054152;28;20078;-24
2023/03/28 03:50:10;;;;;;;0.50;0.50;;;17.40;63.70;;;;;;5054453;28;20059;-25
2023/03/28 03:52:36;;;;;;;0.40;0.40;;;17.40;63.70;;;;;;5054803;28;20058;-24
2023/03/28 03:55:02;;;;;;;0.47;0.47;;;17.50;63.80;;;;;;5054347;28;20028;-23
2023/03/28 03:57:28;;;;;;;0.40;0.40;;;17.40;63.80;;;;;;5053062;28;20028;-24
2023/03/28 03:59:56;;;;;;;0.40;0.40;;;17.40;63.80;;;;;;5054275;28;20029;-24
2023/03/28 04:02:21;;;;;;;0.40;0.40;;;17.40;63.80;;;;;;5054466;28;20033;-24
2023/03/28 04:04:47;;;;;;;0.80;0.52;;;17.40;63.80;;;;;;5054495;28;20435;-23
2023/03/28 04:07:13;;;;;;;0.30;0.30;;;17.40;63.80;;;;;;5054355;28;20513;-24
2023/03/28 04:09:39;;;;;;;0.38;0.35;;;17.40;63.80;;;;;;5054213;28;20038;-23
2023/03/28 04:12:06;;;;;;;0.38;0.32;;;17.40;63.90;;;;;;5053748;28;20036;-23
2023/03/28 04:14:32;;;;;;;0.30;0.30;;;17.40;63.90;;;;;;5054271;28;20074;-23
2023/03/28 04:16:57;;;;;;;0.65;0.40;;;17.40;63.90;;;;;;5054111;28;20428;-24
2023/03/28 04:19:24;;;;;;;0.57;0.40;;;17.40;63.90;;;;;;5053898;28;20489;-24
2023/03/28 04:21:51;;;;;;;0.30;0.30;;;17.40;63.90;;;;;;5053585;28;20033;-25
2023/03/28 04:24:23;;;;;;;0.50;0.50;;;17.40;63.90;;;;;;5053322;28;20021;-25
2023/03/28 04:26:54;;;;;;;0.38;0.38;;;17.40;63.90;;;;;;5053985;28;20028;-24
2023/03/28 04:29:29;;;;;;;0.30;0.30;;;17.40;64.00;;;;;;5054063;28;20086;-24
2023/03/28 04:31:58;;;;;;;0.50;0.50;;;17.40;64.00;;;;;;5053369;28;20025;-23
2023/03/28 04:34:28;;;;;;;0.57;0.40;;;17.30;64.00;;;;;;5053574;28;20029;-23
2023/03/28 04:37:00;;;;;;;0.40;0.40;;;17.40;64.00;;;;;;5053920;28;20028;-24
2023/03/28 04:39:32;;;;;;;1.02;0.55;;;17.30;64.00;;;;;;5053755;28;20025;-24
2023/03/28 04:42:00;;;;;;;0.40;0.40;;;17.30;64.00;;;;;;5053624;28;20021;-25
2023/03/28 04:44:28;;;;;;;0.45;0.45;;;17.30;64.10;;;;;;5053418;28;20043;-24
2023/03/28 04:46:55;;;;;;;0.85;0.57;;;17.30;64.10;;;;;;5053497;28;20021;-25
2023/03/28 04:49:22;;;;;;;0.47;0.47;;;17.30;64.10;;;;;;5053332;28;20453;-25
2023/03/28 04:51:49;;;;;;;0.50;0.30;;;17.30;64.10;;;;;;5053126;28;20024;-25
2023/03/28 04:54:16;;;;;;;0.40;0.40;;;17.30;64.10;;;;;;5053236;28;20036;-25
2023/03/28 04:56:52;;;;;;;0.90;0.30;;;17.30;64.10;;;;;;5053274;28;20104;-24
2023/03/28 04:59:20;;;;;;;0.70;0.60;;;17.20;64.10;;;;;;5053887;28;20103;-24
2023/03/28 05:01:49;;;;;;;0.30;0.30;;;17.30;64.20;;;;;;5053121;28;20101;-25
2023/03/28 05:04:20;;;;;;;0.40;0.30;;;17.20;64.20;;;;;;5053220;28;20123;-25
2023/03/28 05:06:48;;;;;;;0.65;0.50;;;17.20;64.20;;;;;;5053058;28;20082;-25
2023/03/28 05:09:15;;;;;;;0.82;0.60;;;17.20;64.20;;;;;;5051651;28;20052;-25
2023/03/28 05:11:42;;;;;;;0.32;0.32;;;17.20;64.20;;;;;;5053389;28;20036;-24
2023/03/28 05:14:08;;;;;;;0.55;0.32;;;17.20;64.20;;;;;;5051722;28;20112;-25
2023/03/28 05:16:34;;;;;;;0.28;0.28;;;17.20;64.20;;;;;;5053275;28;20020;-24
2023/03/28 05:19:00;;;;;;;0.45;0.43;;;17.20;64.30;;;;;;5052967;28;20029;-25
2023/03/28 05:21:26;;;;;;;0.88;0.50;;;17.20;64.30;;;;;;5053155;28;20036;-25
2023/03/28 05:23:52;;;;;;;0.50;0.50;;;17.30;64.30;;;;;;5052761;28;20134;-24
2023/03/28 05:26:18;;;;;;;1.42;0.63;;;17.30;64.30;;;;;;5053129;28;20032;-25
2023/03/28 05:28:45;;;;;;;0.85;0.47;;;17.30;64.30;;;;;;5052866;28;20112;-25
2023/03/28 05:31:11;;;;;;;0.43;0.40;;;17.30;64.30;;;;;;5053091;28;20036;-24
2023/03/28 05:33:37;;;;;;;0.35;0.30;;;17.40;64.20;;;;;;5053117;28;20032;-25
2023/03/28 05:36:04;;;;;;;3.47;0.60;;;17.40;64.20;;;;;;5055060;28;20111;-25
2023/03/28 05:38:32;;;;;;;1.13;0.30;;;17.40;64.20;;;;;;5056986;28;20469;-25
2023/03/28 05:40:58;;;;;;;0.40;0.40;;;17.40;64.10;;;;;;5057146;28;20021;-25
2023/03/28 05:43:24;;;;;;;0.68;0.47;;;17.40;64.10;;;;;;5056798;28;20112;-25
2023/03/28 05:45:50;;;;;;;1.42;0.50;;;17.50;64.00;;;;;;5056525;28;20564;-25
2023/03/28 05:48:17;;;;;;;2.38;0.70;;;17.60;63.80;;;;;;5056790;28;20043;-24
2023/03/28 05:50:43;;;;;;;4.00;1.00;;;17.80;63.60;;;;;;5056870;28;20021;-24
2023/03/28 05:53:10;;;;;;;1.67;0.80;;;17.90;63.40;;;;;;5056542;28;20488;-24
2023/03/28 05:55:36;;;;;;;1.33;0.70;;;18.10;63.10;;;;;;5056525;28;20029;-25
2023/03/28 05:58:05;;;;;;;1.50;0.85;;;18.40;62.70;;;;;;5056369;28;20536;-25
2023/03/28 06:00:31;;;;;;;2.35;1.05;;;18.50;62.20;;;;;;5056846;28;20043;-25
2023/03/28 06:02:57;;;;;;;2.00;0.95;;;18.70;61.90;;;;;;5056595;28;20055;-25
2023/03/28 06:05:23;;;;;;;1.35;0.65;;;18.90;61.50;;;;;;5056400;28;20087;-25
2023/03/28 06:07:50;;;;;;;1.58;0.98;;;19.00;61.10;;;;;;5055855;28;20118;-25
2023/03/28 06:10:16;;;;;;;2.22;1.05;;;19.10;60.80;;;;;;5056610;28;20072;-25
2023/03/28 06:12:42;;;;;;;2.40;1.33;;;19.30;60.60;;;;;;5056662;28;20021;-24
2023/03/28 06:15:09;;;;;;;1.92;0.80;;;19.40;60.30;;;;;;5056494;28;20079;-24
2023/03/28 06:17:35;;;;;;;1.23;0.93;;;19.40;60.10;;;;;;5056455;28;20033;-25
2023/03/28 06:20:05;;;;;;;1.65;1.02;;;19.40;60.00;;;;;;5056383;28;20096;-25
2023/03/28 06:22:31;;;;;;;1.10;0.95;;;19.40;59.90;;;;;;5056102;28;20029;-25
2023/03/28 06:24:57;;;;;;;1.42;1.10;;;19.40;59.90;;;;;;5056069;28;20021;-25
2023/03/28 06:27:23;;;;;;;3.72;1.13;;;19.40;60.00;;;;;;5055932;28;20124;-25
2023/03/28 06:29:49;;;;;;;3.47;1.02;;;19.30;60.10;;;;;;5055818;28;20103;-25
2023/03/28 06:32:17;;;;;;;3.13;1.48;;;19.20;60.20;;;;;;5056052;28;20025;-25
2023/03/28 06:34:42;;;;;;;1.63;1.13;;;19.20;60.20;;;;;;5056190;28;20029;-25
2023/03/28 06:37:08;;;;;;;2.30;1.42;;;19.20;60.10;;;;;;5056168;28;20420;-26
2023/03/28 06:39:34;;;;;;;2.25;1.10;;;19.30;60.00;;;;;;5056134;28;20117;-26
2023/03/28 06:42:02;;;;;;;1.75;1.23;;;19.40;59.60;;;;;;5054397;28;20029;-25
2023/03/28 06:44:29;;;;;;;2.45;1.20;;;19.40;59.30;;;;;;5055711;28;20039;-25
2023/03/28 06:46:56;;;;;;;3.28;1.30;;;19.50;59.00;;;;;;5053865;28;20082;-25
2023/03/28 06:49:22;;;;;;;6.57;1.45;;;19.70;58.70;;;;;;5055952;28;20033;-24
2023/03/28 06:51:48;;;;;;;1.95;1.13;;;19.90;58.30;;;;;;5055633;28;20051;-25
2023/03/28 06:54:14;;;;;;;1.52;1.08;;;20.00;58.00;;;;;;5055562;28;20461;-25
2023/03/28 06:56:40;;;;;;;2.42;1.20;;;20.20;57.70;;;;;;5055871;28;20025;-26
2023/03/28 06:59:06;;;;;;;5.25;1.48;;;20.30;57.50;;;;;;5055389;28;20104;-25
2023/03/28 07:01:32;;;;;;;2.03;1.30;;;20.40;57.00;;;;;;5055450;28;20112;-25
2023/03/28 07:03:58;;;;;;;1.95;1.30;;;20.50;56.60;;;;;;5055377;28;20025;-25
2023/03/28 07:06:27;;;;;;;2.90;1.40;;;20.70;56.10;;;;;;5055273;28;20500;-24
2023/03/28 07:08:53;;;;;;;2.58;1.58;;;20.90;55.30;;;;;;5055099;28;20118;-25
2023/03/28 07:11:19;;;;;;;2.30;1.30;;;21.20;54.40;;;;;;5054018;28;20596;-25
2023/03/28 07:13:45;;;;;;;1.77;1.23;;;21.40;53.50;;;;;;5055095;28;20104;-24
2023/03/28 07:16:13;;;;;;;1.77;1.50;;;21.60;52.60;;;;;;5055316;28;20116;-25
2023/03/28 07:18:40;;;;;;;1.63;1.27;;;21.90;51.50;;;;;;5055547;28;20060;-26
2023/03/28 07:21:09;;;;;;;1.90;1.17;;;22.10;50.40;;;;;;5055051;28;20387;-25
2023/03/28 07:23:35;;;;;;;6.68;1.65;;;22.20;49.30;;;;;;5055267;28;20029;-25
2023/03/28 07:26:01;;;;;;;2.53;1.40;;;22.30;48.60;;;;;;5055195;28;20032;-25
2023/03/28 07:28:27;;;;;;;2.03;1.60;;;22.20;48.20;;;;;;5054842;28;20037;-24
2023/03/28 07:30:54;;;;;;;1.85;1.40;;;22.10;47.90;;;;;;5055122;28;20076;-25
2023/03/28 07:33:20;;;;;;;2.42;1.52;;;21.90;47.80;;;;;;5055079;28;20371;-25
2023/03/28 07:35:46;;;;;;;1.95;1.20;;;21.80;47.70;;;;;;5054555;28;20112;-25
2023/03/28 07:38:12;;;;;;;1.38;1.10;;;21.50;47.70;;;;;;5055096;28;20155;-25
2023/03/28 07:40:37;;;;;;;1.27;1.00;;;21.40;47.80;;;;;;5054948;28;20384;-26
2023/03/28 07:43:04;;;;;;;1.95;1.38;;;21.20;47.80;;;;;;5054768;28;20040;-25
2023/03/28 07:45:30;;;;;;;1.40;1.10;;;21.00;48.00;;;;;;5054827;28;20480;-24
2023/03/28 07:47:56;;;;;;;2.78;1.33;;;20.90;48.10;;;;;;5054518;28;20041;-25
2023/03/28 07:50:22;;;;;;;1.17;1.10;;;20.80;48.30;;;;;;5054689;28;20033;-25
2023/03/28 07:52:48;;;;;;;2.03;1.10;;;20.60;48.40;;;;;;5054510;28;20561;-25
2023/03/28 07:55:14;;;;;;;1.55;1.10;;;20.50;48.50;;;;;;5054330;28;20112;-24
2023/03/28 07:57:40;;;;;;;1.30;1.20;;;20.40;48.50;;;;;;5055012;28;20103;-25
2023/03/28 08:00:11;;;;;;;1.23;1.13;;;20.30;48.60;;;;;;5052999;28;20043;-25
2023/03/28 08:02:41;;;;;;;1.05;0.82;;;20.20;48.60;;;;;;5053619;28;20033;-25
2023/03/28 08:05:10;;;;;;;1.40;1.10;;;20.10;48.60;;;;;;5054555;28;20025;-25
2023/03/28 08:07:36;;;;;;;2.00;1.10;;;20.00;48.70;;;;;;5054041;28;20059;-25
2023/03/28 08:10:03;;;;;;;1.45;1.00;;;20.00;48.70;;;;;;5054198;28;20033;-25
2023/03/28 08:12:29;;;;;;;1.50;1.10;;;19.90;48.70;;;;;;5054378;28;20098;-24
2023/03/28 08:14:55;;;;;;;1.77;1.00;;;19.90;48.80;;;;;;5053886;28;20029;-25
2023/03/28 08:17:21;;;;;;;1.23;1.02;;;19.90;48.70;;;;;;5054252;28;20024;-25
2023/03/28 08:19:47;;;;;;;1.20;1.08;;;19.80;48.80;;;;;;5053739;28;20068;-24
2023/03/28 08:22:15;;;;;;;0.90;0.90;;;19.70;48.80;;;;;;5053856;28;20071;-25
2023/03/28 08:24:42;;;;;;;1.30;1.20;;;19.70;48.80;;;;;;5054180;28;20028;-24
2023/03/28 08:27:08;;;;;;;1.38;1.10;;;19.70;48.80;;;;;;5053721;28;20476;-25
2023/03/28 08:29:35;;;;;;;1.80;1.20;;;19.60;48.80;;;;;;5053737;28;20036;-26
2023/03/28 08:32:02;;;;;;;1.13;0.95;;;19.60;48.90;;;;;;5053470;28;20030;-25
2023/03/28 08:34:29;;;;;;;1.65;1.10;;;19.50;49.00;;;;;;5053968;28;20029;-25
2023/03/28 08:36:56;;;;;;;1.50;1.10;;;19.50;49.00;;;;;;5053542;28;20029;-25
2023/03/28 08:39:23;;;;;;;1.80;0.82;;;19.50;49.00;;;;;;5053569;28;20040;-26
2023/03/28 08:42:19;;;;;;;1.10;1.00;;;19.50;49.00;;;;;;5053695;28;20036;-23
2023/03/28 08:45:27;;;;;;;2.45;0.95;;;19.40;48.80;;;;;;5053504;28;20033;-25
2023/03/28 08:47:56;;;;;;;0.80;0.80;;;19.40;48.80;;;;;;5039047;28;20052;-25
2023/03/28 08:50:33;;;;;;;1.40;0.90;;;19.40;48.90;;;;;;5053331;28;20033;-25
2023/03/28 08:53:02;;;;;;;1.08;0.80;;;19.40;48.80;;;;;;5053683;28;20052;-25
2023/03/28 08:55:39;;;;;;;2.75;1.17;;;19.40;49.00;;;;;;5053519;28;20051;-25
2023/03/28 08:58:09;;;;;;;0.73;0.70;;;19.40;49.10;;;;;;5053456;28;20025;-25
2023/03/28 09:00:36;;;;;;;1.30;1.10;;;19.30;49.20;;;;;;5053601;28;20032;-25
2023/03/28 09:03:10;;;;;;;1.23;1.00;;;19.30;49.20;;;;;;5053460;28;20112;-24
2023/03/28 09:05:59;;;;;;;1.45;1.00;;;19.30;49.40;;;;;;5053214;28;20035;-25
2023/03/28 09:08:49;;;;;;;1.73;1.08;;;19.30;49.70;;;;;;5052966;28;20151;-24
2023/03/28 09:11:18;;;;;;;1.30;0.95;;;19.20;50.00;;;;;;5052772;28;20021;-24
2023/03/28 09:13:49;;;;;;;1.67;0.98;;;19.20;50.30;;;;;;5053109;28;20057;-25
2023/03/28 09:16:32;;;;;;;0.70;0.70;;;19.20;50.40;;;;;;5053300;28;20029;-25
2023/03/28 09:18:59;;;;;;;1.80;1.10;;;19.20;50.50;;;;;;5053094;28;20116;-24
2023/03/28 09:22:05;;;;;;;2.40;0.90;;;19.20;50.70;;;;;;5053160;28;20040;-25
2023/03/28 09:25:05;;;;;;;2.17;1.10;;;19.20;50.80;;;;;;5011315;28;20509;-25
2023/03/28 09:27:46;;;;;;;1.30;0.82;;;19.20;50.90;;;;;;5011209;28;20041;-24
2023/03/28 09:30:19;;;;;;;1.42;0.98;;;19.20;51.00;;;;;;5011050;28;20034;-24
2023/03/28 09:32:46;;;;;;;1.52;1.00;;;19.30;51.10;;;;;;5011084;28;20054;-25
2023/03/28 09:35:23;;;;;;;1.05;0.85;;;19.20;51.20;;;;;;5011188;28;20398;-25
2023/03/28 09:37:55;;;;;;;1.10;0.90;;;19.30;51.20;;;;;;5010958;28;20018;-24
2023/03/28 09:40:30;;;;;;;1.08;0.98;;;19.20;51.40;;;;;;4994470;28;20041;-23
2023/03/28 09:43:04;;;;;;;3.70;1.13;;;19.20;51.20;;;;;;5011050;28;20034;-24
2023/03/28 09:45:57;;;;;;;1.63;1.10;;;19.20;51.40;;;;;;5010973;28;20033;-25
2023/03/28 09:48:35;;;;;;;2.17;0.90;;;19.20;51.50;;;;;;5011058;28;20122;-24
2023/03/28 09:51:03;;;;;;;7.63;1.08;;;19.20;51.50;;;;;;5011118;28;20088;-25
2023/03/28 09:53:30;;;;;;;1.25;0.98;;;19.20;51.50;;;;;;5011086;28;20049;-25
2023/03/28 09:56:27;;;;;;;1.85;0.80;;;19.20;51.60;;;;;;5010789;28;20048;-24
2023/03/28 09:58:53;;;;;;;1.70;1.10;;;19.20;51.50;;;;;;5010924;28;20667;-25
2023/03/28 10:01:31;;;;;;;0.95;0.82;;;19.20;51.50;;;;;;5052558;28;20117;-24
2023/03/28 10:03:57;;;;;;;2.13;1.15;;;19.20;51.50;;;;;;5052422;28;20435;-24
2023/03/28 10:06:31;;;;;;;1.13;1.00;;;19.20;51.60;;;;;;5052766;28;20052;-24
2023/03/28 10:09:21;;;;;;;1.92;1.10;;;19.10;51.50;;;;;;5052441;28;20445;-24
2023/03/28 10:11:58;;;;;;;1.75;0.90;;;19.20;51.60;;;;;;5052371;28;20033;-26
2023/03/28 10:14:35;;;;;;;0.88;0.75;;;19.10;51.70;;;;;;5052506;28;20032;-24
2023/03/28 10:17:06;;;;;;;2.05;0.88;;;19.10;51.80;;;;;;5052391;28;20021;-25
2023/03/28 10:19:39;;;;;;;4.13;1.17;;;19.10;51.60;;;;;;5052821;28;20055;-25
2023/03/28 10:22:09;;;;;;;1.13;0.90;;;19.10;51.40;;;;;;5053123;28;20033;-24
2023/03/28 10:24:36;;;;;;;1.05;0.95;;;19.10;51.40;;;;;;5056056;28;20040;-25
2023/03/28 10:27:19;;;;;;;0.95;0.90;;;19.00;51.70;;;;;;5056293;28;20473;-24
2023/03/28 10:29:46;;;;;;;1.88;0.90;;;19.00;51.90;;;;;;5056044;28;20029;-26
2023/03/28 10:32:24;;;;;;;1.63;1.05;;;19.00;52.20;;;;;;5055903;28;20029;-24
2023/03/28 10:35:23;;;;;;;2.08;1.08;;;19.00;52.30;;;;;;5054936;28;20040;-25
2023/03/28 10:37:53;;;;;;;2.15;1.13;;;19.00;52.10;;;;;;5055846;28;20036;-25
2023/03/28 10:40:22;;;;;;;1.45;0.75;;;19.00;52.10;;;;;;5056561;28;20025;-24
2023/03/28 10:42:51;;;;;;;0.80;0.80;;;19.00;51.90;;;;;;5055971;28;20036;-25
2023/03/28 10:45:33;;;;;;;1.75;1.23;;;18.90;52.00;;;;;;5055548;28;20028;-25
2023/03/28 10:48:01;;;;;;;0.60;0.60;;;19.00;51.90;;;;;;5055349;28;20029;-24
2023/03/28 10:50:45;;;;;;;0.95;0.85;;;18.90;52.00;;;;;;5055767;28;20021;-23
2023/03/28 10:53:36;;;;;;;2.03;0.82;;;18.90;51.30;;;;;;5055277;28;20470;-24
2023/03/28 10:56:20;;;;;;;0.73;0.70;;;18.90;51.60;;;;;;5055563;28;20393;-23
2023/03/28 10:59:23;;;;;;;1.63;0.93;;;18.90;51.40;;;;;;5055542;28;20040;-25
2023/03/28 11:02:10;;;;;;;2.42;0.98;;;18.90;51.60;;;;;;5054786;28;20025;-24
2023/03/28 11:04:58;;;;;;;1.48;0.80;;;18.90;52.10;;;;;;5055375;28;20021;-23
2023/03/28 11:07:53;;;;;;;1.17;0.85;;;18.90;51.40;;;;;;5054653;28;20059;-24
2023/03/28 11:10:29;;;;;;;1.08;0.82;;;18.90;51.90;;;;;;5055354;28;20103;-23
2023/03/28 11:13:12;;;;;;;1.70;1.00;;;18.90;52.10;;;;;;5053965;28;20021;-26
2023/03/28 11:15:57;;;;;;;2.50;1.10;;;18.80;52.20;;;;;;5055022;28;20378;-24
2023/03/28 11:18:52;;;;;;;1.27;0.70;;;18.80;52.70;;;;;;5055536;28;20025;-24
2023/03/28 11:21:39;;;;;;;0.85;0.77;;;18.80;52.90;;;;;;5033372;28;20060;-23
2023/03/28 11:24:08;;;;;;;0.70;0.70;;;18.80;52.80;;;;;;5054423;28;20393;-23
2023/03/28 11:27:04;;;;;;;1.45;0.73;;;18.80;52.70;;;;;;5054698;28;20392;-24
2023/03/28 11:29:52;;;;;;;1.48;0.73;;;18.80;52.50;;;;;;5054475;28;20091;-23
2023/03/28 11:32:43;;;;;;;0.95;0.73;;;18.80;52.30;;;;;;5053105;28;20031;-24
2023/03/28 11:35:27;;;;;;;2.15;0.85;;;18.80;51.90;;;;;;5054612;28;20029;-23
2023/03/28 11:38:13;;;;;;;0.88;0.70;;;18.80;51.90;;;;;;5054372;28;20033;-23
2023/03/28 11:41:05;;;;;;;0.93;0.88;;;18.80;52.00;;;;;;5054359;28;20025;-24
2023/03/28 11:43:31;;;;;;;1.38;0.80;;;18.70;52.10;;;;;;5054371;28;20036;-24
2023/03/28 11:46:07;;;;;;;1.00;0.90;;;18.70;51.90;;;;;;5054058;28;20021;-24
2023/03/28 11:48:35;;;;;;;1.65;0.80;;;18.70;52.00;;;;;;5054675;28;20060;-23
2023/03/28 11:51:21;;;;;;;0.60;0.60;;;18.70;51.90;;;;;;5054449;28;20508;-24
2023/03/28 11:54:04;;;;;;;1.10;1.00;;;18.70;51.80;;;;;;5054196;28;20052;-24
2023/03/28 11:57:01;;;;;;;2.13;0.93;;;18.70;52.00;;;;;;5054105;28;20489;-24
2023/03/28 11:59:58;;;;;;;1.85;0.88;;;18.60;52.60;;;;;;5054007;28;20029;-24
2023/03/28 12:02:30;;;;;;;2.20;0.90;;;18.70;52.00;;;;;;5012367;28;20030;-23
2023/03/28 12:05:14;;;;;;;0.90;0.90;;;18.70;52.60;;;;;;5012728;28;20476;-24
2023/03/28 12:08:12;;;;;;;1.52;0.80;;;18.60;52.70;;;;;;5012170;28;20057;-25
2023/03/28 12:10:41;;;;;;;2.08;0.60;;;18.60;52.30;;;;;;4999388;28;20033;-24
2023/03/28 12:13:18;;;;;;;0.90;0.80;;;18.60;52.40;;;;;;5012320;28;20133;-23
2023/03/28 12:15:56;;;;;;;0.75;0.75;;;18.60;52.30;;;;;;5012241;28;20026;-22
2023/03/28 12:18:46;;;;;;;0.73;0.73;;;18.70;52.60;;;;;;5011878;28;20030;-24
2023/03/28 12:21:23;;;;;;;2.28;0.60;;;18.70;52.80;;;;;;5012121;28;20026;-23
2023/03/28 12:24:16;;;;;;;0.70;0.70;;;18.60;52.90;;;;;;5012102;28;20522;-23
2023/03/28 12:27:06;;;;;;;0.90;0.75;;;18.60;52.40;;;;;;5012009;28;20045;-24
2023/03/28 12:30:10;;;;;;;0.70;0.70;;;18.70;52.80;;;;;;4995680;28;20119;-23
2023/03/28 12:32:54;;;;;;;2.35;1.08;;;18.60;52.50;;;;;;5011923;28;20500;-23
2023/03/28 12:35:43;;;;;;;1.92;0.80;;;18.60;52.30;;;;;;5011813;28;20022;-24
2023/03/28 12:38:22;;;;;;;4.68;1.10;;;18.60;52.00;;;;;;5008253;28;20030;-25
2023/03/28 12:40:57;;;;;;;1.48;0.90;;;18.60;51.80;;;;;;5052364;28;20404;-23
2023/03/28 12:43:37;;;;;;;0.90;0.90;;;18.60;51.60;;;;;;5053532;28;20029;-24
2023/03/28 12:46:07;;;;;;;1.02;0.85;;;18.60;51.30;;;;;;5052744;28;20020;-24
2023/03/28 12:48:52;;;;;;;0.82;0.82;;;18.60;51.10;;;;;;5053272;28;20025;-23
2023/03/28 12:51:38;;;;;;;1.95;1.10;;;18.50;51.20;;;;;;5053681;28;20078;-23
2023/03/28 12:54:27;;;;;;;0.90;0.90;;;18.50;50.60;;;;;;5053340;28;20400;-25
2023/03/28 12:57:08;;;;;;;0.90;0.90;;;18.50;50.90;;;;;;5051659;28;20025;-24
2023/03/28 12:59:43;;;;;;;1.27;0.95;;;18.50;50.90;;;;;;5053350;28;20055;-24
2023/03/28 13:02:16;;;;;;;1.65;0.85;;;18.50;50.70;;;;;;5053445;28;20056;-25
2023/03/28 13:05:04;;;;;;;1.30;1.13;;;18.50;50.90;;;;;;5053512;28;20025;-24
2023/03/28 13:07:36;;;;;;;1.38;1.23;;;18.50;50.30;;;;;;5052889;28;20579;-25
2023/03/28 13:10:05;;;;;;;1.55;1.23;;;18.40;50.30;;;;;;5053015;28;20919;-24
2023/03/28 13:12:39;;;;;;;1.50;1.40;;;18.40;50.30;;;;;;5053232;28;20362;-24
2023/03/28 13:15:15;;;;;;;1.58;1.17;;;18.40;50.20;;;;;;5053409;28;20033;-24
2023/03/28 13:18:08;;;;;;;1.00;0.93;;;18.40;50.10;;;;;;5053271;28;20049;-23
2023/03/28 13:20:42;;;;;;;1.90;1.20;;;18.40;50.00;;;;;;5052882;28;20025;-24